createdAt,value
2023-05-02T00:00:34.580Z,3.40
2023-05-02T00:01:34.471Z,3.50
2023-05-02T00:02:34.529Z,3.20
2023-05-02T00:03:34.618Z,3.70
2023-05-02T00:04:34.663Z,3.60
2023-05-02T00:05:34.398Z,3.60
2023-05-02T00:07:07.037Z,3.30
2023-05-02T00:08:06.897Z,3.60
2023-05-02T00:08:34.594Z,3.70
2023-05-02T00:09:34.560Z,3.70
2023-05-02T00:10:34.597Z,3.80
2023-05-02T00:11:34.426Z,3.70
2023-05-02T00:12:34.343Z,3.60
2023-05-02T00:13:34.379Z,3.80
2023-05-02T00:14:34.405Z,3.60
2023-05-02T00:15:34.318Z,3.80
2023-05-02T00:16:34.462Z,3.60
2023-05-02T00:17:34.399Z,3.80
2023-05-02T00:18:34.266Z,3.60
2023-05-02T00:19:34.291Z,4.00
2023-05-02T00:20:34.337Z,3.60
2023-05-02T00:21:34.289Z,3.40
2023-05-02T00:22:34.258Z,3.80
2023-05-02T00:23:34.231Z,3.60
2023-05-02T00:24:34.259Z,3.50
2023-05-02T00:25:34.203Z,3.60
2023-05-02T00:26:34.187Z,3.40
2023-05-02T00:27:34.188Z,3.40
2023-05-02T00:28:34.187Z,3.50
2023-05-02T00:29:34.162Z,3.40
2023-05-02T00:30:34.171Z,3.80
2023-05-02T00:31:34.222Z,3.60
2023-05-02T00:32:34.110Z,3.30
2023-05-02T00:33:34.143Z,3.30
2023-05-02T00:34:34.706Z,3.30
2023-05-02T00:35:34.090Z,3.40
2023-05-02T00:36:34.102Z,3.60
2023-05-02T00:37:34.109Z,3.60
2023-05-02T00:38:34.203Z,3.60
2023-05-02T00:39:34.097Z,3.70
2023-05-02T00:40:34.058Z,3.70
2023-05-02T00:41:34.065Z,3.70
2023-05-02T00:42:34.047Z,3.70
2023-05-02T00:43:34.040Z,3.30
2023-05-02T00:44:33.977Z,3.60
2023-05-02T00:45:34.008Z,3.70
2023-05-02T00:46:34.065Z,3.50
2023-05-02T00:47:34.378Z,3.60
2023-05-02T00:48:33.947Z,3.40
2023-05-02T00:49:33.981Z,3.50
2023-05-02T00:50:33.900Z,3.60
2023-05-02T00:51:33.906Z,3.70
2023-05-02T00:52:33.921Z,3.50
2023-05-02T00:53:33.897Z,3.50
2023-05-02T00:54:33.992Z,3.80
2023-05-02T00:55:33.836Z,3.80
2023-05-02T00:56:33.860Z,3.50
2023-05-02T00:57:33.920Z,3.70
2023-05-02T00:58:34.092Z,3.60
2023-05-02T00:59:34.921Z,3.60
2023-05-02T01:00:34.837Z,3.50
2023-05-02T01:01:33.843Z,3.70
2023-05-02T01:02:33.917Z,3.50
2023-05-02T01:03:33.863Z,3.50
2023-05-02T01:04:33.766Z,3.60
2023-05-02T01:05:33.753Z,3.70
2023-05-02T01:06:33.809Z,3.80
2023-05-02T01:07:33.723Z,3.80
2023-05-02T01:08:33.717Z,4.30
2023-05-02T01:09:33.755Z,4.20
2023-05-02T01:10:33.706Z,4.20
2023-05-02T01:11:33.682Z,4.30
2023-05-02T01:12:33.699Z,4.20
2023-05-02T01:13:33.728Z,4.40
2023-05-02T01:14:33.681Z,4.10
2023-05-02T01:15:33.619Z,4.10
2023-05-02T01:16:33.733Z,4.60
2023-05-02T01:17:33.623Z,5.20
2023-05-02T01:18:33.550Z,4.90
2023-05-02T01:19:33.648Z,5.00
2023-05-02T01:20:33.576Z,4.60
2023-05-02T01:21:33.572Z,5.00
2023-05-02T01:22:33.566Z,5.00
2023-05-02T01:23:33.577Z,5.50
2023-05-02T01:24:33.614Z,5.40
2023-05-02T01:25:33.564Z,5.60
2023-05-02T01:26:33.479Z,5.60
2023-05-02T01:27:33.523Z,5.80
2023-05-02T01:28:33.478Z,5.80
2023-05-02T01:29:34.509Z,5.40
2023-05-02T01:30:33.524Z,5.60
2023-05-02T01:31:33.466Z,5.90
2023-05-02T01:32:33.633Z,5.30
2023-05-02T01:33:33.495Z,6.00
2023-05-02T01:34:33.446Z,6.10
2023-05-02T01:35:33.418Z,6.20
2023-05-02T01:36:33.478Z,6.70
2023-05-02T01:37:34.437Z,6.30
2023-05-02T01:38:33.394Z,6.50
2023-05-02T01:39:33.474Z,6.60
2023-05-02T01:40:33.346Z,7.10
2023-05-02T01:41:34.207Z,6.70
2023-05-02T01:42:33.341Z,6.50
2023-05-02T01:43:33.329Z,7.50
2023-05-02T01:44:33.305Z,7.40
2023-05-02T01:45:33.315Z,7.40
2023-05-02T01:46:34.163Z,7.40
2023-05-02T01:47:33.431Z,7.10
2023-05-02T01:48:33.311Z,7.50
2023-05-02T01:49:33.316Z,7.50
2023-05-02T01:50:33.261Z,8.10
2023-05-02T01:51:33.259Z,8.20
2023-05-02T01:52:33.223Z,8.40
2023-05-02T01:53:33.208Z,8.30
2023-05-02T01:54:33.293Z,8.80
2023-05-02T01:55:33.229Z,8.60
2023-05-02T01:56:33.153Z,8.70
2023-05-02T01:57:34.105Z,8.70
2023-05-02T01:58:33.198Z,9.00
2023-05-02T01:59:33.186Z,9.20
2023-05-02T02:00:33.188Z,9.40
2023-05-02T02:01:33.280Z,9.20
2023-05-02T02:02:33.196Z,8.90
2023-05-02T02:03:33.225Z,9.50
2023-05-02T02:04:33.114Z,9.70
2023-05-02T02:05:33.115Z,9.80
2023-05-02T02:06:33.178Z,10.10
2023-05-02T02:07:33.064Z,9.80
2023-05-02T02:08:33.126Z,9.70
2023-05-02T02:09:33.094Z,9.90
2023-05-02T02:10:33.101Z,9.80
2023-05-02T02:11:33.022Z,10.00
2023-05-02T02:12:32.995Z,9.50
2023-05-02T02:13:33.001Z,9.60
2023-05-02T02:14:32.945Z,10.40
2023-05-02T02:15:32.987Z,10.50
2023-05-02T02:16:33.088Z,10.10
2023-05-02T02:17:32.998Z,10.20
2023-05-02T02:18:32.955Z,10.50
2023-05-02T02:19:32.981Z,9.90
2023-05-02T02:20:32.932Z,10.20
2023-05-02T02:21:32.946Z,11.20
2023-05-02T02:22:32.948Z,10.80
2023-05-02T02:23:32.932Z,10.60
2023-05-02T02:24:32.899Z,10.50
2023-05-02T02:25:32.888Z,11.00
2023-05-02T02:26:32.924Z,10.60
2023-05-02T02:27:32.862Z,10.60
2023-05-02T02:28:32.857Z,10.40
2023-05-02T02:29:32.872Z,11.30
2023-05-02T02:30:32.878Z,11.20
2023-05-02T02:31:32.960Z,11.00
2023-05-02T02:32:32.817Z,11.30
2023-05-02T02:33:32.939Z,11.40
2023-05-02T02:34:32.786Z,11.60
2023-05-02T02:35:32.764Z,11.20
2023-05-02T02:36:32.753Z,11.30
2023-05-02T02:37:32.762Z,11.60
2023-05-02T02:38:32.755Z,10.90
2023-05-02T02:39:32.742Z,11.50
2023-05-02T02:40:32.778Z,11.50
2023-05-02T02:41:32.719Z,11.40
2023-05-02T02:42:32.737Z,11.30
2023-05-02T02:43:32.705Z,11.80
2023-05-02T02:44:32.680Z,11.60
2023-05-02T02:45:32.669Z,11.60
2023-05-02T02:46:32.792Z,11.80
2023-05-02T02:47:32.724Z,11.70
2023-05-02T02:48:32.641Z,12.10
2023-05-02T02:49:32.689Z,12.30
2023-05-02T02:50:32.657Z,12.40
2023-05-02T02:51:32.605Z,11.60
2023-05-02T02:52:33.576Z,12.10
2023-05-02T02:53:32.623Z,11.80
2023-05-02T02:54:32.685Z,11.60
2023-05-02T02:55:32.584Z,12.30
2023-05-02T02:56:32.599Z,12.20
2023-05-02T02:57:32.584Z,12.00
2023-05-02T02:58:32.513Z,12.60
2023-05-02T02:59:32.552Z,12.10
2023-05-02T03:00:32.502Z,12.40
2023-05-02T03:01:32.642Z,11.70
2023-05-02T03:02:32.570Z,12.20
2023-05-02T03:03:32.505Z,12.60
2023-05-02T03:04:32.473Z,12.50
2023-05-02T03:05:32.489Z,12.10
2023-05-02T03:06:32.636Z,12.90
2023-05-02T03:07:32.464Z,11.80
2023-05-02T03:08:32.458Z,12.90
2023-05-02T03:09:32.457Z,12.30
2023-05-02T03:10:32.423Z,12.60
2023-05-02T03:11:32.479Z,12.30
2023-05-02T03:12:32.372Z,12.40
2023-05-02T03:13:32.435Z,12.90
2023-05-02T03:14:32.387Z,12.30
2023-05-02T03:15:32.353Z,12.70
2023-05-02T03:16:32.500Z,12.50
2023-05-02T03:17:32.387Z,12.60
2023-05-02T03:18:32.364Z,13.50
2023-05-02T03:19:32.375Z,12.60
2023-05-02T03:20:32.324Z,12.40
2023-05-02T03:21:32.307Z,13.20
2023-05-02T03:22:32.304Z,12.80
2023-05-02T03:23:32.277Z,13.10
2023-05-02T03:24:32.297Z,13.20
2023-05-02T03:25:32.265Z,13.50
2023-05-02T03:26:32.282Z,13.30
2023-05-02T03:27:32.272Z,13.40
2023-05-02T03:28:32.194Z,13.30
2023-05-02T03:29:32.230Z,13.20
2023-05-02T03:30:32.202Z,13.50
2023-05-02T03:31:32.278Z,13.60
2023-05-02T03:32:32.216Z,13.70
2023-05-02T03:33:32.182Z,13.80
2023-05-02T03:34:32.230Z,14.20
2023-05-02T03:35:32.135Z,13.60
2023-05-02T03:36:32.138Z,12.80
2023-05-02T03:37:32.109Z,13.20
2023-05-02T03:38:32.118Z,14.10
2023-05-02T03:39:32.123Z,14.00
2023-05-02T03:40:32.184Z,14.30
2023-05-02T03:41:32.106Z,14.40
2023-05-02T03:42:32.102Z,14.10
2023-05-02T03:44:04.579Z,14.00
2023-05-02T03:44:32.286Z,14.20
2023-05-02T03:46:06.687Z,14.30
2023-05-02T03:46:32.197Z,14.60
2023-05-02T03:48:06.813Z,14.30
2023-05-02T03:48:32.191Z,14.70
2023-05-02T03:50:04.553Z,14.80
2023-05-02T03:52:04.716Z,15.10
2023-05-02T03:52:32.466Z,15.60
2023-05-02T03:53:32.151Z,15.70
2023-05-02T03:54:32.138Z,15.30
2023-05-02T03:55:32.051Z,15.90
2023-05-02T03:56:32.818Z,15.40
2023-05-02T03:57:31.993Z,15.60
2023-05-02T03:58:32.011Z,15.80
2023-05-02T03:59:31.919Z,16.80
2023-05-02T04:00:31.971Z,16.80
2023-05-02T04:01:32.297Z,17.10
2023-05-02T04:02:32.085Z,17.50
2023-05-02T04:03:31.954Z,17.00
2023-05-02T04:04:31.891Z,17.90
2023-05-02T04:05:31.879Z,17.70
2023-05-02T04:06:32.891Z,17.30
2023-05-02T04:07:31.861Z,17.00
2023-05-02T04:08:31.843Z,16.70
2023-05-02T04:09:31.851Z,17.30
2023-05-02T04:10:31.825Z,17.00
2023-05-02T04:11:31.820Z,18.20
2023-05-02T04:12:31.801Z,18.50
2023-05-02T04:13:31.725Z,18.20
2023-05-02T04:14:31.763Z,19.70
2023-05-02T04:15:31.807Z,20.20
2023-05-02T04:16:31.816Z,19.40
2023-05-02T04:17:31.741Z,20.10
2023-05-02T04:18:31.705Z,20.10
2023-05-02T04:19:31.799Z,20.30
2023-05-02T04:20:31.762Z,21.10
2023-05-02T04:21:31.699Z,20.30
2023-05-02T04:22:31.667Z,20.30
2023-05-02T04:23:32.642Z,21.50
2023-05-02T04:24:31.728Z,21.50
2023-05-02T04:25:31.685Z,21.30
2023-05-02T04:26:31.638Z,21.30
2023-05-02T04:27:31.643Z,20.80
2023-05-02T04:28:31.670Z,20.50
2023-05-02T04:29:31.659Z,21.00
2023-05-02T04:30:31.646Z,20.90
2023-05-02T04:31:31.797Z,21.30
2023-05-02T04:32:31.702Z,22.40
2023-05-02T04:33:31.634Z,22.90
2023-05-02T04:34:31.566Z,22.90
2023-05-02T04:35:31.558Z,21.50
2023-05-02T04:36:31.595Z,22.60
2023-05-02T04:37:31.492Z,22.30
2023-05-02T04:38:31.489Z,22.10
2023-05-02T04:39:31.533Z,22.50
2023-05-02T04:40:31.583Z,22.80
2023-05-02T04:41:31.455Z,23.70
2023-05-02T04:42:31.476Z,23.70
2023-05-02T04:43:31.472Z,24.70
2023-05-02T04:44:31.468Z,24.80
2023-05-02T04:45:31.467Z,25.80
2023-05-02T04:46:31.484Z,26.20
2023-05-02T04:47:31.552Z,26.00
2023-05-02T04:48:31.871Z,28.10
2023-05-02T04:49:31.635Z,27.80
2023-05-02T04:50:31.589Z,29.10
2023-05-02T04:51:31.932Z,28.50
2023-05-02T04:52:31.438Z,29.20
2023-05-02T04:53:31.602Z,28.00
2023-05-02T04:54:31.467Z,27.90
2023-05-02T04:55:31.807Z,29.20
2023-05-02T04:56:31.526Z,29.10
2023-05-02T04:57:32.559Z,29.20
2023-05-02T04:58:31.540Z,29.90
2023-05-02T04:59:31.465Z,30.20
2023-05-02T05:00:31.984Z,30.40
2023-05-02T05:01:31.491Z,30.50
2023-05-02T05:02:31.449Z,31.90
2023-05-02T05:03:31.693Z,30.20
2023-05-02T05:04:31.398Z,30.20
2023-05-02T05:05:31.814Z,30.60
2023-05-02T05:06:31.567Z,30.00
2023-05-02T05:07:31.662Z,30.80
2023-05-02T05:08:31.392Z,30.40
2023-05-02T05:09:31.736Z,30.20
2023-05-02T05:10:31.324Z,32.20
2023-05-02T05:11:31.300Z,30.70
2023-05-02T05:12:31.468Z,32.50
2023-05-02T05:13:31.783Z,32.00
2023-05-02T05:14:31.342Z,31.60
2023-05-02T05:15:31.250Z,30.60
2023-05-02T05:16:31.421Z,31.00
2023-05-02T05:17:31.414Z,32.50
2023-05-02T05:18:31.275Z,32.60
2023-05-02T05:19:31.355Z,32.60
2023-05-02T05:20:31.804Z,31.70
2023-05-02T05:21:31.299Z,32.10
2023-05-02T05:22:31.400Z,31.60
2023-05-02T05:23:31.197Z,31.60
2023-05-02T05:24:31.312Z,31.30
2023-05-02T05:25:31.222Z,32.60
2023-05-02T05:26:31.220Z,31.70
2023-05-02T05:27:31.132Z,31.20
2023-05-02T05:28:31.200Z,32.50
2023-05-02T05:29:31.144Z,32.00
2023-05-02T05:30:31.677Z,31.90
2023-05-02T05:31:31.325Z,29.80
2023-05-02T05:32:31.166Z,31.50
2023-05-02T05:33:31.120Z,31.80
2023-05-02T05:34:31.239Z,32.80
2023-05-02T05:35:31.108Z,31.90
2023-05-02T05:36:30.981Z,31.10
2023-05-02T05:37:31.188Z,31.60
2023-05-02T05:38:31.064Z,31.20
2023-05-02T05:39:30.891Z,30.30
2023-05-02T05:40:30.905Z,30.80
2023-05-02T05:41:31.052Z,31.60
2023-05-02T05:42:30.934Z,31.40
2023-05-02T05:43:30.920Z,30.90
2023-05-02T05:44:30.947Z,31.70
2023-05-02T05:45:30.885Z,31.00
2023-05-02T05:46:30.897Z,29.80
2023-05-02T05:47:31.017Z,30.80
2023-05-02T05:48:30.905Z,30.40
2023-05-02T05:49:30.833Z,30.20
2023-05-02T05:50:30.814Z,29.60
2023-05-02T05:51:31.055Z,30.60
2023-05-02T05:52:30.833Z,29.00
2023-05-02T05:53:30.831Z,29.10
2023-05-02T05:54:31.226Z,29.70
2023-05-02T05:55:30.749Z,29.50
2023-05-02T05:56:30.754Z,29.40
2023-05-02T05:57:30.762Z,30.30
2023-05-02T05:59:03.147Z,29.60
2023-05-02T06:00:04.378Z,29.70
2023-05-02T06:00:31.519Z,30.60
2023-05-02T06:01:30.730Z,28.80
2023-05-02T06:02:30.810Z,29.00
2023-05-02T06:03:30.954Z,30.10
2023-05-02T06:04:30.730Z,28.80
2023-05-02T06:05:30.620Z,28.50
2023-05-02T06:06:30.656Z,27.60
2023-05-02T06:07:30.690Z,28.60
2023-05-02T06:08:30.640Z,28.60
2023-05-02T06:09:30.610Z,28.10
2023-05-02T06:10:30.614Z,27.30
2023-05-02T06:11:30.569Z,28.40
2023-05-02T06:12:30.592Z,27.50
2023-05-02T06:13:30.601Z,28.90
2023-05-02T06:14:30.699Z,27.80
2023-05-02T06:15:30.536Z,27.00
2023-05-02T06:16:30.606Z,26.90
2023-05-02T06:17:30.560Z,26.80
2023-05-02T06:18:30.521Z,28.30
2023-05-02T06:19:30.585Z,28.40
2023-05-02T06:20:30.661Z,26.10
2023-05-02T06:21:30.541Z,25.40
2023-05-02T06:22:30.512Z,24.20
2023-05-02T06:23:30.450Z,22.60
2023-05-02T06:24:30.454Z,24.20
2023-05-02T06:25:30.414Z,24.90
2023-05-02T06:26:30.426Z,23.90
2023-05-02T06:27:32.307Z,25.10
2023-05-02T06:28:30.405Z,25.00
2023-05-02T06:29:30.362Z,25.60
2023-05-02T06:30:30.404Z,25.30
2023-05-02T06:31:30.430Z,23.70
2023-05-02T06:32:30.384Z,21.60
2023-05-02T06:33:30.411Z,23.20
2023-05-02T06:34:30.341Z,18.90
2023-05-02T06:35:30.274Z,18.00
2023-05-02T06:36:30.348Z,19.00
2023-05-02T06:37:30.603Z,17.00
2023-05-02T06:38:30.306Z,18.20
2023-05-02T06:39:30.459Z,17.30
2023-05-02T06:40:30.220Z,17.50
2023-05-02T06:41:30.268Z,17.10
2023-05-02T06:42:30.261Z,16.90
2023-05-02T06:43:30.314Z,16.20
2023-05-02T06:44:30.229Z,16.20
2023-05-02T06:45:30.269Z,16.50
2023-05-02T06:46:30.233Z,15.70
2023-05-02T06:47:30.265Z,15.80
2023-05-02T06:48:30.290Z,15.90
2023-05-02T06:49:30.165Z,15.90
2023-05-02T06:50:30.180Z,15.90
2023-05-02T06:51:30.703Z,16.10
2023-05-02T06:52:30.119Z,16.80
2023-05-02T06:53:32.385Z,16.30
2023-05-02T06:54:30.200Z,16.50
2023-05-02T06:55:30.340Z,16.20
2023-05-02T06:56:30.052Z,16.50
2023-05-02T06:57:30.180Z,16.50
2023-05-02T06:58:30.058Z,16.10
2023-05-02T06:59:30.064Z,15.70
2023-05-02T07:00:30.066Z,16.30
2023-05-02T07:01:30.240Z,15.40
2023-05-02T07:02:30.024Z,14.50
2023-05-02T07:03:30.010Z,15.30
2023-05-02T07:04:30.065Z,15.50
2023-05-02T07:05:30.107Z,15.30
2023-05-02T07:06:29.994Z,14.60
2023-05-02T07:07:29.999Z,15.00
2023-05-02T07:08:29.948Z,14.70
2023-05-02T07:09:29.907Z,14.60
2023-05-02T07:10:29.943Z,14.10
2023-05-02T07:11:29.958Z,13.20
2023-05-02T07:12:30.667Z,11.50
2023-05-02T07:13:29.883Z,11.00
2023-05-02T07:14:29.899Z,10.50
2023-05-02T07:15:29.846Z,9.90
2023-05-02T07:16:29.955Z,9.00
2023-05-02T07:17:29.901Z,9.30
2023-05-02T07:18:29.932Z,9.40
2023-05-02T07:19:31.280Z,9.60
2023-05-02T07:20:29.908Z,9.40
2023-05-02T07:21:29.843Z,8.90
2023-05-02T07:22:29.830Z,9.20
2023-05-02T07:23:29.830Z,9.20
2023-05-02T07:24:29.770Z,9.50
2023-05-02T07:25:29.730Z,9.20
2023-05-02T07:26:29.815Z,9.70
2023-05-02T07:27:29.718Z,9.60
2023-05-02T07:28:29.755Z,10.00
2023-05-02T07:29:29.702Z,9.80
2023-05-02T07:30:29.721Z,9.20
2023-05-02T07:31:29.759Z,7.90
2023-05-02T07:32:30.639Z,8.50
2023-05-02T07:33:29.994Z,8.10
2023-05-02T07:34:29.661Z,8.00
2023-05-02T07:35:29.747Z,8.20
2023-05-02T07:36:29.634Z,8.10
2023-05-02T07:37:29.582Z,8.30
2023-05-02T07:38:29.647Z,8.30
2023-05-02T07:39:29.670Z,8.30
2023-05-02T07:40:29.703Z,8.00
2023-05-02T07:41:29.571Z,7.70
2023-05-02T07:42:29.536Z,7.60
2023-05-02T07:43:29.592Z,7.90
2023-05-02T07:44:29.726Z,8.10
2023-05-02T07:45:29.567Z,7.50
2023-05-02T07:46:29.561Z,7.10
2023-05-02T07:47:29.644Z,7.50
2023-05-02T07:48:30.310Z,7.50
2023-05-02T07:49:29.531Z,6.90
2023-05-02T07:50:29.546Z,7.10
2023-05-02T07:51:29.488Z,7.00
2023-05-02T07:52:29.478Z,6.50
2023-05-02T07:53:29.487Z,6.70
2023-05-02T07:54:29.601Z,6.70
2023-05-02T07:55:29.460Z,6.50
2023-05-02T07:56:29.506Z,7.20
2023-05-02T07:57:29.405Z,6.70
2023-05-02T07:58:29.454Z,7.60
2023-05-02T07:59:29.426Z,6.50
2023-05-02T08:00:29.435Z,6.60
2023-05-02T08:01:29.422Z,6.70
2023-05-02T08:02:29.717Z,6.50
2023-05-02T08:03:29.505Z,6.80
2023-05-02T08:04:29.502Z,6.60
2023-05-02T08:05:29.344Z,6.70
2023-05-02T08:06:29.412Z,6.50
2023-05-02T08:07:29.280Z,6.20
2023-05-02T08:08:29.318Z,6.70
2023-05-02T08:09:29.321Z,6.00
2023-05-02T08:10:29.252Z,7.20
2023-05-02T08:11:29.372Z,7.00
2023-05-02T08:12:29.305Z,7.10
2023-05-02T08:13:29.306Z,6.60
2023-05-02T08:14:29.238Z,6.70
2023-05-02T08:15:29.174Z,6.90
2023-05-02T08:16:29.250Z,6.20
2023-05-02T08:17:29.272Z,6.60
2023-05-02T08:18:29.215Z,7.20
2023-05-02T08:19:29.219Z,6.90
2023-05-02T08:20:29.158Z,6.70
2023-05-02T08:21:29.188Z,6.80
2023-05-02T08:22:29.179Z,7.00
2023-05-02T08:23:29.200Z,7.10
2023-05-02T08:24:29.146Z,6.80
2023-05-02T08:25:29.224Z,6.50
2023-05-02T08:26:29.093Z,6.30
2023-05-02T08:27:29.091Z,6.50
2023-05-02T08:28:29.136Z,6.30
2023-05-02T08:29:29.170Z,5.90
2023-05-02T08:30:29.097Z,6.30
2023-05-02T08:31:29.062Z,5.60
2023-05-02T08:32:29.554Z,5.50
2023-05-02T08:33:29.066Z,5.60
2023-05-02T08:34:29.054Z,5.20
2023-05-02T08:35:28.968Z,5.00
2023-05-02T08:36:29.008Z,5.00
2023-05-02T08:37:29.060Z,4.60
2023-05-02T08:38:28.963Z,4.60
2023-05-02T08:39:28.958Z,5.10
2023-05-02T08:40:40.877Z,5.10
2023-05-02T08:41:30.996Z,5.20
2023-05-02T08:42:28.937Z,4.90
2023-05-02T08:43:28.932Z,5.30
2023-05-02T08:44:28.948Z,5.20
2023-05-02T08:45:28.863Z,5.20
2023-05-02T08:46:28.959Z,4.80
2023-05-02T08:47:28.930Z,4.60
2023-05-02T08:48:28.900Z,5.00
2023-05-02T08:49:28.904Z,4.90
2023-05-02T08:50:28.934Z,4.70
2023-05-02T08:51:29.834Z,4.40
2023-05-02T08:52:28.812Z,3.70
2023-05-02T08:53:28.822Z,3.20
2023-05-02T08:55:01.506Z,3.30
2023-05-02T08:55:29.026Z,2.90
2023-05-02T08:56:28.976Z,3.30
2023-05-02T08:57:28.819Z,3.40
2023-05-02T08:58:28.911Z,3.30
2023-05-02T08:59:28.759Z,3.20
2023-05-02T09:00:28.748Z,3.40
2023-05-02T09:01:29.062Z,3.60
2023-05-02T09:02:28.748Z,3.50
2023-05-02T09:03:28.688Z,3.50
2023-05-02T09:04:28.766Z,3.70
2023-05-02T09:05:28.706Z,3.80
2023-05-02T09:06:29.110Z,3.60
2023-05-02T09:07:28.767Z,3.70
2023-05-02T09:08:28.641Z,3.60
2023-05-02T09:09:29.306Z,3.90
2023-05-02T09:10:28.987Z,3.70
2023-05-02T09:11:28.694Z,3.90
2023-05-02T09:12:28.686Z,3.70
2023-05-02T09:13:29.283Z,3.80
2023-05-02T09:14:28.659Z,3.70
2023-05-02T09:15:28.846Z,3.60
2023-05-02T09:16:28.625Z,3.50
2023-05-02T09:17:29.863Z,3.30
2023-05-02T09:18:29.196Z,3.70
2023-05-02T09:19:28.784Z,3.70
2023-05-02T09:20:28.693Z,3.70
2023-05-02T09:21:28.727Z,3.80
2023-05-02T09:22:28.663Z,3.70
2023-05-02T09:23:28.567Z,3.40
2023-05-02T09:24:28.665Z,3.50
2023-05-02T09:25:30.194Z,3.30
2023-05-02T09:26:29.635Z,3.00
2023-05-02T09:27:28.539Z,3.00
2023-05-02T09:28:28.550Z,3.10
2023-05-02T09:29:29.509Z,3.10
2023-05-02T09:30:29.523Z,3.50
2023-05-02T09:31:49.658Z,3.00
2023-05-02T09:32:34.428Z,2.80
2023-05-02T09:33:28.442Z,2.50
2023-05-02T09:34:28.467Z,2.30
2023-05-02T09:35:28.736Z,2.40
2023-05-02T09:36:29.789Z,2.50
2023-05-02T09:37:28.991Z,2.20
2023-05-02T09:38:39.179Z,3.20
2023-05-02T09:39:28.540Z,2.50
2023-05-02T09:40:29.563Z,2.50
2023-05-02T09:41:28.431Z,2.40
2023-05-02T09:42:28.867Z,2.20
2023-05-02T09:43:28.411Z,2.30
2023-05-02T09:44:28.834Z,2.20
2023-05-02T09:45:28.991Z,2.40
2023-05-02T09:46:28.989Z,2.30
2023-05-02T09:47:29.791Z,2.00
2023-05-02T09:48:29.255Z,2.50
2023-05-02T09:49:46.332Z,2.20
2023-05-02T09:50:28.202Z,2.10
2023-05-02T09:51:28.329Z,2.40
2023-05-02T09:52:28.294Z,2.30
2023-05-02T09:53:28.232Z,2.60
2023-05-02T09:54:28.341Z,2.00
2023-05-02T09:55:28.638Z,2.10
2023-05-02T09:56:28.691Z,2.20
2023-05-02T09:57:29.221Z,2.20
2023-05-02T09:58:28.431Z,2.40
2023-05-02T09:59:30.075Z,2.70
2023-05-02T10:00:28.695Z,2.20
2023-05-02T10:01:28.147Z,2.40
2023-05-02T10:02:28.110Z,2.00
2023-05-02T10:03:28.491Z,1.90
2023-05-02T10:04:28.706Z,2.20
2023-05-02T10:05:28.250Z,2.10
2023-05-02T10:06:28.071Z,2.00
2023-05-02T10:07:28.283Z,2.00
2023-05-02T10:08:28.119Z,2.00
2023-05-02T10:09:28.164Z,2.10
2023-05-02T10:10:46.824Z,1.90
2023-05-02T10:11:28.152Z,2.00
2023-05-02T10:12:28.106Z,1.90
2023-05-02T10:13:28.048Z,2.10
2023-05-02T10:14:29.525Z,2.10
2023-05-02T10:15:28.942Z,1.90
2023-05-02T10:16:29.401Z,1.70
2023-05-02T10:17:28.762Z,1.70
2023-05-02T10:18:28.501Z,1.70
2023-05-02T10:19:28.753Z,1.70
2023-05-02T10:20:28.784Z,1.80
2023-05-02T10:21:27.862Z,1.90
2023-05-02T10:22:27.992Z,1.90
2023-05-02T10:23:27.957Z,1.90
2023-05-02T10:24:40.654Z,2.00
2023-05-02T10:25:28.223Z,1.90
2023-05-02T10:26:27.764Z,2.00
2023-05-02T10:27:27.860Z,2.10
2023-05-02T10:28:27.822Z,2.00
2023-05-02T10:29:27.817Z,2.10
2023-05-02T10:30:27.764Z,2.10
2023-05-02T10:31:27.802Z,2.10
2023-05-02T10:32:27.806Z,2.30
2023-05-02T10:33:28.311Z,2.10
2023-05-02T10:34:27.738Z,2.30
2023-05-02T10:35:27.686Z,2.20
2023-05-02T10:36:27.975Z,2.40
2023-05-02T10:37:27.750Z,2.40
2023-05-02T10:38:27.699Z,2.40
2023-05-02T10:39:27.770Z,2.40
2023-05-02T10:41:00.091Z,2.60
2023-05-02T10:42:00.119Z,2.50
2023-05-02T10:42:27.727Z,2.40
2023-05-02T10:45:03.102Z,2.50
2023-05-02T10:46:02.238Z,2.20
2023-05-02T10:47:00.143Z,2.60
2023-05-02T10:49:33.845Z,2.40
2023-05-02T10:51:08.391Z,2.20
2023-05-02T10:51:35.154Z,2.20
2023-05-02T10:52:35.057Z,2.30
2023-05-02T10:53:35.072Z,2.70
2023-05-02T10:54:34.948Z,3.40
2023-05-02T10:55:34.942Z,3.50
2023-05-02T10:56:34.907Z,3.30
2023-05-02T10:57:34.954Z,2.90
2023-05-02T10:58:34.916Z,2.60
2023-05-02T10:59:34.884Z,2.40
2023-05-02T11:00:34.933Z,2.30
2023-05-02T11:01:34.861Z,2.40
2023-05-02T11:02:34.928Z,2.40
2023-05-02T11:03:34.908Z,2.20
2023-05-02T11:04:34.835Z,2.30
2023-05-02T11:05:34.786Z,2.30
2023-05-02T11:06:34.867Z,2.50
2023-05-02T11:07:34.809Z,2.50
2023-05-02T11:08:34.750Z,2.60
2023-05-02T11:09:34.737Z,2.60
2023-05-02T11:10:35.839Z,2.70
2023-05-02T11:11:34.804Z,2.40
2023-05-02T11:12:34.715Z,2.40
2023-05-02T11:13:34.705Z,2.50
2023-05-02T11:14:34.723Z,2.80
2023-05-02T11:15:34.706Z,2.70
2023-05-02T11:16:34.803Z,3.00
2023-05-02T11:17:34.734Z,2.50
2023-05-02T11:18:34.641Z,2.70
2023-05-02T11:19:34.720Z,2.80
2023-05-02T11:20:34.689Z,2.70
2023-05-02T11:21:34.591Z,2.60
2023-05-02T11:22:34.624Z,2.60
2023-05-02T11:23:34.589Z,2.60
2023-05-02T11:24:34.604Z,2.70
2023-05-02T11:25:34.599Z,2.80
2023-05-02T11:26:35.385Z,3.50
2023-05-02T11:27:34.532Z,4.00
2023-05-02T11:28:34.564Z,4.60
2023-05-02T11:29:34.528Z,5.50
2023-05-02T11:30:34.705Z,5.40
2023-05-02T11:31:34.545Z,6.40
2023-05-02T11:32:34.506Z,7.10
2023-05-02T11:33:34.612Z,5.40
2023-05-02T11:34:34.417Z,4.60
2023-05-02T11:35:34.517Z,3.70
2023-05-02T11:36:34.541Z,3.60
2023-05-02T11:37:34.418Z,3.50
2023-05-02T11:38:34.534Z,3.60
2023-05-02T11:39:34.440Z,3.60
2023-05-02T11:40:34.436Z,3.60
2023-05-02T11:41:34.407Z,4.00
2023-05-02T11:42:34.397Z,3.90
2023-05-02T11:43:34.336Z,3.60
2023-05-02T11:44:34.361Z,4.30
2023-05-02T11:45:34.377Z,4.00
2023-05-02T11:46:34.386Z,4.60
2023-05-02T11:47:34.344Z,4.90
2023-05-02T11:48:34.365Z,4.80
2023-05-02T11:50:06.734Z,4.80
2023-05-02T11:50:34.464Z,4.80
2023-05-02T11:51:34.590Z,5.40
2023-05-02T11:52:34.329Z,5.30
2023-05-02T11:53:34.454Z,5.60
2023-05-02T11:54:34.243Z,5.50
2023-05-02T11:55:34.375Z,5.80
2023-05-02T11:56:34.247Z,5.90
2023-05-02T11:57:34.230Z,6.00
2023-05-02T11:58:34.422Z,6.10
2023-05-02T11:59:34.210Z,5.80
2023-05-02T12:00:34.148Z,6.20
2023-05-02T12:01:34.211Z,5.90
2023-05-02T12:02:34.479Z,5.90
2023-05-02T12:03:34.259Z,5.50
2023-05-02T12:04:34.107Z,6.00
2023-05-02T12:05:34.226Z,6.00
2023-05-02T12:06:34.204Z,5.90
2023-05-02T12:07:34.126Z,6.00
2023-05-02T12:08:34.088Z,5.10
2023-05-02T12:09:34.096Z,5.80
2023-05-02T12:10:34.101Z,6.20
2023-05-02T12:11:34.057Z,5.30
2023-05-02T12:12:34.068Z,5.30
2023-05-02T12:13:34.112Z,5.70
2023-05-02T12:14:34.044Z,5.70
2023-05-02T12:15:33.998Z,5.50
2023-05-02T12:16:34.117Z,5.60
2023-05-02T12:17:34.030Z,5.50
2023-05-02T12:18:33.968Z,5.80
2023-05-02T12:19:33.964Z,5.80
2023-05-02T12:20:34.024Z,5.30
2023-05-02T12:21:33.905Z,5.40
2023-05-02T12:22:33.943Z,5.40
2023-05-02T12:23:35.339Z,5.90
2023-05-02T12:24:33.918Z,5.60
2023-05-02T12:25:33.901Z,5.70
2023-05-02T12:26:34.098Z,5.30
2023-05-02T12:27:33.839Z,5.30
2023-05-02T12:28:33.882Z,5.50
2023-05-02T12:29:33.875Z,5.40
2023-05-02T12:30:38.285Z,5.60
2023-05-02T12:31:33.882Z,5.20
2023-05-02T12:32:33.860Z,5.70
2023-05-02T12:33:33.842Z,6.30
2023-05-02T12:34:33.804Z,5.80
2023-05-02T12:35:34.812Z,5.80
2023-05-02T12:36:33.819Z,5.50
2023-05-02T12:37:33.742Z,5.40
2023-05-02T12:38:33.733Z,5.30
2023-05-02T12:39:33.765Z,5.30
2023-05-02T12:40:33.787Z,5.00
2023-05-02T12:41:33.754Z,4.90
2023-05-02T12:42:33.711Z,5.40
2023-05-02T12:43:33.726Z,5.40
2023-05-02T12:44:33.727Z,5.30
2023-05-02T12:45:33.651Z,5.60
2023-05-02T12:46:33.717Z,5.20
2023-05-02T12:47:33.677Z,5.20
2023-05-02T12:48:33.628Z,5.30
2023-05-02T12:49:33.585Z,5.80
2023-05-02T12:50:33.574Z,5.80
2023-05-02T12:51:33.587Z,5.20
2023-05-02T12:52:33.567Z,5.10
2023-05-02T12:53:33.686Z,5.20
2023-05-02T12:54:33.535Z,4.60
2023-05-02T12:55:33.553Z,4.70
2023-05-02T12:56:33.549Z,4.80
2023-05-02T12:57:33.608Z,4.70
2023-05-02T12:58:33.487Z,5.00
2023-05-02T12:59:33.527Z,4.50
2023-05-02T13:00:33.511Z,4.40
2023-05-02T13:01:33.617Z,5.00
2023-05-02T13:02:33.511Z,5.10
2023-05-02T13:03:33.568Z,5.00
2023-05-02T13:04:33.444Z,4.70
2023-05-02T13:05:33.417Z,4.90
2023-05-02T13:06:33.457Z,4.70
2023-05-02T13:07:33.377Z,5.20
2023-05-02T13:08:33.382Z,5.00
2023-05-02T13:09:33.365Z,4.80
2023-05-02T13:10:33.459Z,4.60
2023-05-02T13:11:33.314Z,5.60
2023-05-02T13:12:33.295Z,5.30